sensor_id;sensor_type;location;lat;lon;timestamp;temperature;humidity
14737;DHT22;7459;53.590;10.062;2024-03-08T00:02:14;3.60;99.90
14737;DHT22;7459;53.590;10.062;2024-03-08T00:04:40;3.60;99.90
14737;DHT22;7459;53.590;10.062;2024-03-08T00:07:06;3.60;99.90
14737;DHT22;7459;53.590;10.062;2024-03-08T00:09:32;3.60;99.90
14737;DHT22;7459;53.590;10.062;2024-03-08T00:11:58;3.60;99.90
14737;DHT22;7459;53.590;10.062;2024-03-08T00:14:24;3.50;99.90
14737;DHT22;7459;53.590;10.062;2024-03-08T00:16:50;3.50;99.90
14737;DHT22;7459;53.590;10.062;2024-03-08T00:19:15;3.50;99.90
14737;DHT22;7459;53.590;10.062;2024-03-08T00:21:41;3.40;99.90
14737;DHT22;7459;53.590;10.062;2024-03-08T00:24:07;3.40;99.90
14737;DHT22;7459;53.590;10.062;2024-03-08T00:26:33;3.50;99.90
14737;DHT22;7459;53.590;10.062;2024-03-08T00:28:59;3.40;99.90
14737;DHT22;7459;53.590;10.062;2024-03-08T00:31:24;3.40;99.90
14737;DHT22;7459;53.590;10.062;2024-03-08T00:33:50;3.40;99.90
14737;DHT22;7459;53.590;10.062;2024-03-08T00:36:17;3.30;99.90
14737;DHT22;7459;53.590;10.062;2024-03-08T00:38:43;3.30;99.90
14737;DHT22;7459;53.590;10.062;2024-03-08T00:41:09;3.20;99.90
14737;DHT22;7459;53.590;10.062;2024-03-08T00:43:34;3.30;99.90
14737;DHT22;7459;53.590;10.062;2024-03-08T00:46:00;3.30;99.90
14737;DHT22;7459;53.590;10.062;2024-03-08T00:48:26;3.30;99.90
14737;DHT22;7459;53.590;10.062;2024-03-08T00:50:53;3.30;99.90
14737;DHT22;7459;53.590;10.062;2024-03-08T00:53:18;3.30;99.90
14737;DHT22;7459;53.590;10.062;2024-03-08T00:55:44;3.30;99.90
14737;DHT22;7459;53.590;10.062;2024-03-08T00:58:12;3.30;99.90
14737;DHT22;7459;53.590;10.062;2024-03-08T01:00:38;3.20;99.90
14737;DHT22;7459;53.590;10.062;2024-03-08T01:03:04;3.20;99.90
14737;DHT22;7459;53.590;10.062;2024-03-08T01:05:30;3.20;99.90
14737;DHT22;7459;53.590;10.062;2024-03-08T01:07:56;3.20;99.90
14737;DHT22;7459;53.590;10.062;2024-03-08T01:10:22;3.10;99.90
14737;DHT22;7459;53.590;10.062;2024-03-08T01:12:48;3.10;99.90
14737;DHT22;7459;53.590;10.062;2024-03-08T01:15:15;3.10;99.90
14737;DHT22;7459;53.590;10.062;2024-03-08T01:17:40;3.10;99.90
14737;DHT22;7459;53.590;10.062;2024-03-08T01:20:07;3.10;99.90
14737;DHT22;7459;53.590;10.062;2024-03-08T01:22:33;3.00;99.90
14737;DHT22;7459;53.590;10.062;2024-03-08T01:24:59;3.10;99.90
14737;DHT22;7459;53.590;10.062;2024-03-08T01:27:25;3.00;99.90
14737;DHT22;7459;53.590;10.062;2024-03-08T01:29:51;3.00;99.90
14737;DHT22;7459;53.590;10.062;2024-03-08T01:32:16;3.00;99.90
14737;DHT22;7459;53.590;10.062;2024-03-08T01:34:42;3.00;99.90
14737;DHT22;7459;53.590;10.062;2024-03-08T01:37:10;3.00;99.90
14737;DHT22;7459;53.590;10.062;2024-03-08T01:39:36;3.00;99.90
14737;DHT22;7459;53.590;10.062;2024-03-08T01:42:01;2.90;99.90
14737;DHT22;7459;53.590;10.062;2024-03-08T01:44:27;2.90;99.90
14737;DHT22;7459;53.590;10.062;2024-03-08T01:46:53;2.90;99.90
14737;DHT22;7459;53.590;10.062;2024-03-08T01:49:21;2.90;99.90
14737;DHT22;7459;53.590;10.062;2024-03-08T01:51:48;2.90;99.90
14737;DHT22;7459;53.590;10.062;2024-03-08T01:54:17;2.90;99.90
14737;DHT22;7459;53.590;10.062;2024-03-08T01:56:44;2.90;99.90
14737;DHT22;7459;53.590;10.062;2024-03-08T01:59:09;2.80;99.90
14737;DHT22;7459;53.590;10.062;2024-03-08T02:01:35;2.80;99.90
14737;DHT22;7459;53.590;10.062;2024-03-08T02:04:01;2.80;99.90
14737;DHT22;7459;53.590;10.062;2024-03-08T02:06:27;2.80;99.90
14737;DHT22;7459;53.590;10.062;2024-03-08T02:08:52;2.80;99.90
14737;DHT22;7459;53.590;10.062;2024-03-08T02:11:19;2.80;99.90
14737;DHT22;7459;53.590;10.062;2024-03-08T02:13:46;2.70;99.90
14737;DHT22;7459;53.590;10.062;2024-03-08T02:16:11;2.70;99.90
14737;DHT22;7459;53.590;10.062;2024-03-08T02:18:37;2.70;99.90
14737;DHT22;7459;53.590;10.062;2024-03-08T02:21:05;2.60;99.90
14737;DHT22;7459;53.590;10.062;2024-03-08T02:23:32;2.60;99.90
14737;DHT22;7459;53.590;10.062;2024-03-08T02:25:59;2.70;99.90
14737;DHT22;7459;53.590;10.062;2024-03-08T02:28:25;2.60;99.90
14737;DHT22;7459;53.590;10.062;2024-03-08T02:30:51;2.60;99.90
14737;DHT22;7459;53.590;10.062;2024-03-08T02:33:21;2.60;99.90
14737;DHT22;7459;53.590;10.062;2024-03-08T02:35:48;2.60;99.90
14737;DHT22;7459;53.590;10.062;2024-03-08T02:38:15;2.50;99.90
14737;DHT22;7459;53.590;10.062;2024-03-08T02:40:46;2.50;99.90
14737;DHT22;7459;53.590;10.062;2024-03-08T02:43:13;2.50;99.90
14737;DHT22;7459;53.590;10.062;2024-03-08T02:45:40;2.50;99.90
14737;DHT22;7459;53.590;10.062;2024-03-08T02:48:09;2.50;99.90
14737;DHT22;7459;53.590;10.062;2024-03-08T02:50:36;2.50;99.90
14737;DHT22;7459;53.590;10.062;2024-03-08T02:53:03;2.40;99.90
14737;DHT22;7459;53.590;10.062;2024-03-08T02:55:29;2.30;99.90
14737;DHT22;7459;53.590;10.062;2024-03-08T02:57:56;2.40;99.90
14737;DHT22;7459;53.590;10.062;2024-03-08T03:00:22;2.30;99.90
14737;DHT22;7459;53.590;10.062;2024-03-08T03:05:24;2.30;99.90
14737;DHT22;7459;53.590;10.062;2024-03-08T03:07:50;2.30;99.90
14737;DHT22;7459;53.590;10.062;2024-03-08T03:10:17;2.20;99.90
14737;DHT22;7459;53.590;10.062;2024-03-08T03:12:44;2.20;99.90
14737;DHT22;7459;53.590;10.062;2024-03-08T03:15:12;2.10;99.90
14737;DHT22;7459;53.590;10.062;2024-03-08T03:17:45;2.10;99.90
14737;DHT22;7459;53.590;10.062;2024-03-08T03:20:14;2.10;99.90
14737;DHT22;7459;53.590;10.062;2024-03-08T03:22:40;2.10;99.90
14737;DHT22;7459;53.590;10.062;2024-03-08T03:25:09;2.20;99.90
14737;DHT22;7459;53.590;10.062;2024-03-08T03:27:35;2.20;99.90
14737;DHT22;7459;53.590;10.062;2024-03-08T03:30:01;2.20;99.90
14737;DHT22;7459;53.590;10.062;2024-03-08T03:32:49;2.20;99.90
14737;DHT22;7459;53.590;10.062;2024-03-08T03:35:17;2.10;99.90
14737;DHT22;7459;53.590;10.062;2024-03-08T03:37:43;2.10;99.90
14737;DHT22;7459;53.590;10.062;2024-03-08T03:40:48;2.10;99.90
14737;DHT22;7459;53.590;10.062;2024-03-08T03:43:14;2.10;99.90
14737;DHT22;7459;53.590;10.062;2024-03-08T03:45:40;2.00;99.90
14737;DHT22;7459;53.590;10.062;2024-03-08T03:48:07;2.00;99.90
14737;DHT22;7459;53.590;10.062;2024-03-08T03:50:36;2.10;99.90
14737;DHT22;7459;53.590;10.062;2024-03-08T03:53:02;2.00;99.90
14737;DHT22;7459;53.590;10.062;2024-03-08T03:55:28;2.10;99.90
14737;DHT22;7459;53.590;10.062;2024-03-08T03:57:54;2.10;99.90
14737;DHT22;7459;53.590;10.062;2024-03-08T04:00:20;2.10;99.90
14737;DHT22;7459;53.590;10.062;2024-03-08T04:02:46;2.10;99.90
14737;DHT22;7459;53.590;10.062;2024-03-08T04:05:12;2.10;99.90
14737;DHT22;7459;53.590;10.062;2024-03-08T04:07:38;2.00;99.90
14737;DHT22;7459;53.590;10.062;2024-03-08T04:10:06;2.00;99.90
14737;DHT22;7459;53.590;10.062;2024-03-08T04:12:33;2.00;99.90
14737;DHT22;7459;53.590;10.062;2024-03-08T04:14:59;2.00;99.90
14737;DHT22;7459;53.590;10.062;2024-03-08T04:17:25;2.00;99.90
14737;DHT22;7459;53.590;10.062;2024-03-08T04:19:51;2.00;99.90
14737;DHT22;7459;53.590;10.062;2024-03-08T04:22:17;2.00;99.90
14737;DHT22;7459;53.590;10.062;2024-03-08T04:24:44;2.10;99.90
14737;DHT22;7459;53.590;10.062;2024-03-08T04:27:11;2.00;99.90
14737;DHT22;7459;53.590;10.062;2024-03-08T04:29:36;2.00;99.90
14737;DHT22;7459;53.590;10.062;2024-03-08T04:32:04;2.00;99.90
14737;DHT22;7459;53.590;10.062;2024-03-08T04:34:31;1.90;99.90
14737;DHT22;7459;53.590;10.062;2024-03-08T04:36:57;1.80;99.90
14737;DHT22;7459;53.590;10.062;2024-03-08T04:39:23;1.80;99.90
14737;DHT22;7459;53.590;10.062;2024-03-08T04:41:50;1.90;99.90
14737;DHT22;7459;53.590;10.062;2024-03-08T04:44:16;1.90;99.90
14737;DHT22;7459;53.590;10.062;2024-03-08T04:46:43;1.90;99.90
14737;DHT22;7459;53.590;10.062;2024-03-08T04:49:09;1.90;99.90
14737;DHT22;7459;53.590;10.062;2024-03-08T04:51:37;1.90;99.90
14737;DHT22;7459;53.590;10.062;2024-03-08T04:54:02;1.80;99.90
14737;DHT22;7459;53.590;10.062;2024-03-08T04:56:30;1.80;99.90
14737;DHT22;7459;53.590;10.062;2024-03-08T04:58:56;1.90;99.90
14737;DHT22;7459;53.590;10.062;2024-03-08T05:01:21;1.90;99.90
14737;DHT22;7459;53.590;10.062;2024-03-08T05:03:47;1.90;99.90
14737;DHT22;7459;53.590;10.062;2024-03-08T05:06:15;1.80;99.90
14737;DHT22;7459;53.590;10.062;2024-03-08T05:08:41;1.80;99.90
14737;DHT22;7459;53.590;10.062;2024-03-08T05:11:07;1.90;99.90
14737;DHT22;7459;53.590;10.062;2024-03-08T05:13:33;1.90;99.90
14737;DHT22;7459;53.590;10.062;2024-03-08T05:16:00;1.80;99.90
14737;DHT22;7459;53.590;10.062;2024-03-08T05:18:26;1.80;99.90
14737;DHT22;7459;53.590;10.062;2024-03-08T05:20:53;1.80;99.90
14737;DHT22;7459;53.590;10.062;2024-03-08T05:23:19;1.90;99.90
14737;DHT22;7459;53.590;10.062;2024-03-08T05:25:45;1.90;99.90
14737;DHT22;7459;53.590;10.062;2024-03-08T05:28:12;1.90;99.90
14737;DHT22;7459;53.590;10.062;2024-03-08T05:30:38;1.90;99.90
14737;DHT22;7459;53.590;10.062;2024-03-08T05:33:04;1.90;99.90
14737;DHT22;7459;53.590;10.062;2024-03-08T05:35:30;1.80;99.90
14737;DHT22;7459;53.590;10.062;2024-03-08T05:37:57;1.90;99.90
14737;DHT22;7459;53.590;10.062;2024-03-08T05:40:23;1.90;99.90
14737;DHT22;7459;53.590;10.062;2024-03-08T05:42:49;1.80;99.90
14737;DHT22;7459;53.590;10.062;2024-03-08T05:45:15;1.90;99.90
14737;DHT22;7459;53.590;10.062;2024-03-08T05:47:41;1.90;99.90
14737;DHT22;7459;53.590;10.062;2024-03-08T05:50:07;1.90;99.90
14737;DHT22;7459;53.590;10.062;2024-03-08T05:52:36;1.90;99.90
14737;DHT22;7459;53.590;10.062;2024-03-08T05:55:03;1.90;99.90
14737;DHT22;7459;53.590;10.062;2024-03-08T05:57:32;1.90;99.90
14737;DHT22;7459;53.590;10.062;2024-03-08T05:59:58;1.80;99.90
14737;DHT22;7459;53.590;10.062;2024-03-08T06:02:24;1.80;99.90
14737;DHT22;7459;53.590;10.062;2024-03-08T06:04:50;1.80;99.90
14737;DHT22;7459;53.590;10.062;2024-03-08T06:07:16;1.90;99.90
14737;DHT22;7459;53.590;10.062;2024-03-08T06:09:43;1.90;99.90
14737;DHT22;7459;53.590;10.062;2024-03-08T06:12:11;1.80;99.90
14737;DHT22;7459;53.590;10.062;2024-03-08T06:14:37;1.90;99.90
14737;DHT22;7459;53.590;10.062;2024-03-08T06:17:03;1.90;99.90
14737;DHT22;7459;53.590;10.062;2024-03-08T06:19:32;1.90;99.90
14737;DHT22;7459;53.590;10.062;2024-03-08T06:21:58;1.80;99.90
14737;DHT22;7459;53.590;10.062;2024-03-08T06:24:31;1.80;99.90
14737;DHT22;7459;53.590;10.062;2024-03-08T06:26:57;1.80;99.90
14737;DHT22;7459;53.590;10.062;2024-03-08T06:29:23;1.90;99.90
14737;DHT22;7459;53.590;10.062;2024-03-08T06:31:49;1.90;99.90
14737;DHT22;7459;53.590;10.062;2024-03-08T06:34:15;1.90;99.90
14737;DHT22;7459;53.590;10.062;2024-03-08T06:36:41;1.90;99.90
14737;DHT22;7459;53.590;10.062;2024-03-08T06:39:06;2.00;99.90
14737;DHT22;7459;53.590;10.062;2024-03-08T06:41:36;2.00;99.90
14737;DHT22;7459;53.590;10.062;2024-03-08T06:44:02;2.00;99.90
14737;DHT22;7459;53.590;10.062;2024-03-08T06:46:28;2.00;99.90
14737;DHT22;7459;53.590;10.062;2024-03-08T06:48:56;2.00;99.90
14737;DHT22;7459;53.590;10.062;2024-03-08T06:51:22;2.00;99.90
14737;DHT22;7459;53.590;10.062;2024-03-08T06:53:48;2.10;99.90
14737;DHT22;7459;53.590;10.062;2024-03-08T06:56:14;2.10;99.90
14737;DHT22;7459;53.590;10.062;2024-03-08T06:58:40;2.10;99.90
14737;DHT22;7459;53.590;10.062;2024-03-08T07:01:06;2.10;99.90
14737;DHT22;7459;53.590;10.062;2024-03-08T07:03:33;2.20;99.90
14737;DHT22;7459;53.590;10.062;2024-03-08T07:05:59;2.20;99.90
14737;DHT22;7459;53.590;10.062;2024-03-08T07:08:25;2.30;99.90
14737;DHT22;7459;53.590;10.062;2024-03-08T07:10:52;2.30;99.90
14737;DHT22;7459;53.590;10.062;2024-03-08T07:13:19;2.40;99.90
14737;DHT22;7459;53.590;10.062;2024-03-08T07:15:44;2.40;99.90
14737;DHT22;7459;53.590;10.062;2024-03-08T07:18:11;2.40;99.90
14737;DHT22;7459;53.590;10.062;2024-03-08T07:20:40;2.40;99.90
14737;DHT22;7459;53.590;10.062;2024-03-08T07:23:06;2.40;99.90
14737;DHT22;7459;53.590;10.062;2024-03-08T07:25:34;2.50;99.90
14737;DHT22;7459;53.590;10.062;2024-03-08T07:28:00;2.50;99.90
14737;DHT22;7459;53.590;10.062;2024-03-08T07:30:27;2.60;99.90
14737;DHT22;7459;53.590;10.062;2024-03-08T07:33:11;2.60;99.90
14737;DHT22;7459;53.590;10.062;2024-03-08T07:35:37;2.70;99.90
14737;DHT22;7459;53.590;10.062;2024-03-08T07:38:04;2.70;99.90
14737;DHT22;7459;53.590;10.062;2024-03-08T07:40:32;2.70;99.90
14737;DHT22;7459;53.590;10.062;2024-03-08T07:43:00;2.80;99.90
14737;DHT22;7459;53.590;10.062;2024-03-08T07:45:26;2.80;99.90
14737;DHT22;7459;53.590;10.062;2024-03-08T07:47:51;2.80;99.90
14737;DHT22;7459;53.590;10.062;2024-03-08T07:50:18;2.90;99.90
14737;DHT22;7459;53.590;10.062;2024-03-08T07:52:44;3.00;99.90
14737;DHT22;7459;53.590;10.062;2024-03-08T07:55:10;3.00;99.90
14737;DHT22;7459;53.590;10.062;2024-03-08T07:57:36;3.00;99.90
14737;DHT22;7459;53.590;10.062;2024-03-08T08:00:07;3.00;99.90
14737;DHT22;7459;53.590;10.062;2024-03-08T08:02:34;3.10;99.90
14737;DHT22;7459;53.590;10.062;2024-03-08T08:05:01;3.10;99.90
14737;DHT22;7459;53.590;10.062;2024-03-08T08:07:27;3.10;99.90
14737;DHT22;7459;53.590;10.062;2024-03-08T08:09:53;3.10;99.90
14737;DHT22;7459;53.590;10.062;2024-03-08T08:12:19;3.20;99.90
14737;DHT22;7459;53.590;10.062;2024-03-08T08:14:45;3.20;99.90
14737;DHT22;7459;53.590;10.062;2024-03-08T08:17:12;3.20;99.90
14737;DHT22;7459;53.590;10.062;2024-03-08T08:19:37;3.30;99.90
14737;DHT22;7459;53.590;10.062;2024-03-08T08:22:04;3.30;99.90
14737;DHT22;7459;53.590;10.062;2024-03-08T08:24:30;3.40;99.90
14737;DHT22;7459;53.590;10.062;2024-03-08T08:26:56;3.40;99.90
14737;DHT22;7459;53.590;10.062;2024-03-08T08:29:21;3.40;99.90
14737;DHT22;7459;53.590;10.062;2024-03-08T08:31:48;3.40;99.90
14737;DHT22;7459;53.590;10.062;2024-03-08T08:34:16;3.50;99.90
14737;DHT22;7459;53.590;10.062;2024-03-08T08:36:44;3.50;99.90
14737;DHT22;7459;53.590;10.062;2024-03-08T08:39:10;3.60;99.90
14737;DHT22;7459;53.590;10.062;2024-03-08T08:41:39;3.60;99.90
14737;DHT22;7459;53.590;10.062;2024-03-08T08:44:07;3.70;99.90
14737;DHT22;7459;53.590;10.062;2024-03-08T08:46:35;3.70;99.90
14737;DHT22;7459;53.590;10.062;2024-03-08T08:49:03;3.70;99.90
14737;DHT22;7459;53.590;10.062;2024-03-08T08:51:34;3.80;99.90
14737;DHT22;7459;53.590;10.062;2024-03-08T08:54:00;3.80;99.90
14737;DHT22;7459;53.590;10.062;2024-03-08T08:56:25;3.80;99.90
14737;DHT22;7459;53.590;10.062;2024-03-08T08:58:52;3.90;99.90
14737;DHT22;7459;53.590;10.062;2024-03-08T09:01:20;3.90;99.90
14737;DHT22;7459;53.590;10.062;2024-03-08T09:03:46;4.00;99.90
14737;DHT22;7459;53.590;10.062;2024-03-08T09:06:12;4.00;99.90
14737;DHT22;7459;53.590;10.062;2024-03-08T09:08:39;4.00;99.90
14737;DHT22;7459;53.590;10.062;2024-03-08T09:11:05;4.00;99.90
14737;DHT22;7459;53.590;10.062;2024-03-08T09:13:31;4.10;99.90
14737;DHT22;7459;53.590;10.062;2024-03-08T09:15:59;4.10;99.90
14737;DHT22;7459;53.590;10.062;2024-03-08T09:18:25;4.20;99.90
14737;DHT22;7459;53.590;10.062;2024-03-08T09:20:51;4.20;99.90
14737;DHT22;7459;53.590;10.062;2024-03-08T09:23:21;4.20;99.90
14737;DHT22;7459;53.590;10.062;2024-03-08T09:25:47;4.30;99.90
14737;DHT22;7459;53.590;10.062;2024-03-08T09:28:12;4.30;99.90
14737;DHT22;7459;53.590;10.062;2024-03-08T09:30:39;4.30;99.90
14737;DHT22;7459;53.590;10.062;2024-03-08T09:33:05;4.40;99.90
14737;DHT22;7459;53.590;10.062;2024-03-08T09:35:32;4.40;99.90
14737;DHT22;7459;53.590;10.062;2024-03-08T09:37:57;4.40;99.90
14737;DHT22;7459;53.590;10.062;2024-03-08T09:40:23;4.50;99.90
14737;DHT22;7459;53.590;10.062;2024-03-08T09:42:51;4.50;99.90
14737;DHT22;7459;53.590;10.062;2024-03-08T09:45:20;4.50;99.90
14737;DHT22;7459;53.590;10.062;2024-03-08T09:47:47;4.60;99.90
14737;DHT22;7459;53.590;10.062;2024-03-08T09:50:14;4.60;99.90
14737;DHT22;7459;53.590;10.062;2024-03-08T09:52:42;4.60;99.90
14737;DHT22;7459;53.590;10.062;2024-03-08T09:55:09;4.60;99.90
14737;DHT22;7459;53.590;10.062;2024-03-08T09:57:39;4.70;99.90
14737;DHT22;7459;53.590;10.062;2024-03-08T10:00:06;4.70;99.90
14737;DHT22;7459;53.590;10.062;2024-03-08T10:02:46;4.70;99.90
14737;DHT22;7459;53.590;10.062;2024-03-08T10:05:12;4.80;99.90
14737;DHT22;7459;53.590;10.062;2024-03-08T10:07:39;4.80;99.90
14737;DHT22;7459;53.590;10.062;2024-03-08T10:10:05;4.90;99.90
14737;DHT22;7459;53.590;10.062;2024-03-08T10:12:34;4.90;99.90
14737;DHT22;7459;53.590;10.062;2024-03-08T10:15:00;5.00;99.90
14737;DHT22;7459;53.590;10.062;2024-03-08T10:17:26;5.00;99.90
14737;DHT22;7459;53.590;10.062;2024-03-08T10:19:52;5.00;99.90
14737;DHT22;7459;53.590;10.062;2024-03-08T10:22:19;5.10;99.90
14737;DHT22;7459;53.590;10.062;2024-03-08T10:24:46;5.10;99.90
14737;DHT22;7459;53.590;10.062;2024-03-08T10:27:12;5.10;99.90
14737;DHT22;7459;53.590;10.062;2024-03-08T10:29:37;5.20;99.90
14737;DHT22;7459;53.590;10.062;2024-03-08T10:32:08;5.20;99.90
14737;DHT22;7459;53.590;10.062;2024-03-08T10:34:34;5.30;99.90
14737;DHT22;7459;53.590;10.062;2024-03-08T10:37:03;5.30;99.90
14737;DHT22;7459;53.590;10.062;2024-03-08T10:39:36;5.40;99.90
14737;DHT22;7459;53.590;10.062;2024-03-08T10:42:05;5.50;99.90
14737;DHT22;7459;53.590;10.062;2024-03-08T10:47:33;5.60;99.90
14737;DHT22;7459;53.590;10.062;2024-03-08T10:50:17;5.60;99.90
14737;DHT22;7459;53.590;10.062;2024-03-08T10:52:49;5.70;99.90
14737;DHT22;7459;53.590;10.062;2024-03-08T10:55:17;5.80;99.90
14737;DHT22;7459;53.590;10.062;2024-03-08T10:57:46;5.80;99.90
14737;DHT22;7459;53.590;10.062;2024-03-08T11:00:13;5.80;99.90
14737;DHT22;7459;53.590;10.062;2024-03-08T11:02:43;5.90;99.90
14737;DHT22;7459;53.590;10.062;2024-03-08T11:05:40;5.90;99.90
14737;DHT22;7459;53.590;10.062;2024-03-08T11:08:19;6.00;99.90
14737;DHT22;7459;53.590;10.062;2024-03-08T11:10:52;6.10;99.90
14737;DHT22;7459;53.590;10.062;2024-03-08T11:13:40;6.10;99.90
14737;DHT22;7459;53.590;10.062;2024-03-08T11:19:05;6.20;99.90
14737;DHT22;7459;53.590;10.062;2024-03-08T11:21:36;6.30;99.90
14737;DHT22;7459;53.590;10.062;2024-03-08T11:24:14;6.40;99.90
14737;DHT22;7459;53.590;10.062;2024-03-08T11:26:42;6.40;99.90
14737;DHT22;7459;53.590;10.062;2024-03-08T11:32:16;6.60;99.90
14737;DHT22;7459;53.590;10.062;2024-03-08T11:34:48;6.70;99.90
14737;DHT22;7459;53.590;10.062;2024-03-08T11:37:17;6.80;99.90
14737;DHT22;7459;53.590;10.062;2024-03-08T11:40:02;6.80;99.90
14737;DHT22;7459;53.590;10.062;2024-03-08T11:42:30;6.80;99.90
14737;DHT22;7459;53.590;10.062;2024-03-08T11:44:56;6.90;99.90
14737;DHT22;7459;53.590;10.062;2024-03-08T11:47:23;6.90;99.90
14737;DHT22;7459;53.590;10.062;2024-03-08T11:49:49;7.00;99.90
14737;DHT22;7459;53.590;10.062;2024-03-08T11:52:16;7.00;99.90
14737;DHT22;7459;53.590;10.062;2024-03-08T11:54:51;7.10;99.90
14737;DHT22;7459;53.590;10.062;2024-03-08T11:57:23;7.20;99.90
14737;DHT22;7459;53.590;10.062;2024-03-08T11:59:52;7.30;99.90
14737;DHT22;7459;53.590;10.062;2024-03-08T12:02:18;7.30;99.90
14737;DHT22;7459;53.590;10.062;2024-03-08T12:04:47;7.40;99.90
14737;DHT22;7459;53.590;10.062;2024-03-08T12:07:13;7.50;99.90
14737;DHT22;7459;53.590;10.062;2024-03-08T12:09:40;7.60;99.90
14737;DHT22;7459;53.590;10.062;2024-03-08T12:12:11;7.60;99.90
14737;DHT22;7459;53.590;10.062;2024-03-08T12:14:37;7.70;99.90
14737;DHT22;7459;53.590;10.062;2024-03-08T12:17:04;7.80;99.90
14737;DHT22;7459;53.590;10.062;2024-03-08T12:19:31;7.90;99.90
14737;DHT22;7459;53.590;10.062;2024-03-08T12:22:07;7.90;99.90
14737;DHT22;7459;53.590;10.062;2024-03-08T12:24:35;7.90;99.90
14737;DHT22;7459;53.590;10.062;2024-03-08T12:27:17;8.00;99.90
14737;DHT22;7459;53.590;10.062;2024-03-08T12:29:45;8.00;99.90
14737;DHT22;7459;53.590;10.062;2024-03-08T12:32:12;8.10;99.90
14737;DHT22;7459;53.590;10.062;2024-03-08T12:34:38;8.10;99.90
14737;DHT22;7459;53.590;10.062;2024-03-08T12:37:03;8.20;99.90
14737;DHT22;7459;53.590;10.062;2024-03-08T12:39:32;8.30;99.90
14737;DHT22;7459;53.590;10.062;2024-03-08T12:41:58;8.30;99.90
14737;DHT22;7459;53.590;10.062;2024-03-08T12:44:24;8.40;99.90
14737;DHT22;7459;53.590;10.062;2024-03-08T12:46:51;8.40;99.90
14737;DHT22;7459;53.590;10.062;2024-03-08T12:49:17;8.50;99.90
14737;DHT22;7459;53.590;10.062;2024-03-08T12:51:43;8.50;99.90
14737;DHT22;7459;53.590;10.062;2024-03-08T12:54:09;8.60;99.90
14737;DHT22;7459;53.590;10.062;2024-03-08T12:56:36;8.60;99.90
14737;DHT22;7459;53.590;10.062;2024-03-08T12:59:04;8.60;99.90
14737;DHT22;7459;53.590;10.062;2024-03-08T13:01:31;8.70;99.90
14737;DHT22;7459;53.590;10.062;2024-03-08T13:04:02;8.70;99.90
14737;DHT22;7459;53.590;10.062;2024-03-08T13:06:29;8.70;99.90
14737;DHT22;7459;53.590;10.062;2024-03-08T13:08:56;8.80;99.90
14737;DHT22;7459;53.590;10.062;2024-03-08T13:11:23;8.80;99.90
14737;DHT22;7459;53.590;10.062;2024-03-08T13:13:49;8.80;99.90
14737;DHT22;7459;53.590;10.062;2024-03-08T13:16:15;8.80;99.90
14737;DHT22;7459;53.590;10.062;2024-03-08T13:18:42;8.80;99.90
14737;DHT22;7459;53.590;10.062;2024-03-08T13:21:09;8.90;99.90
14737;DHT22;7459;53.590;10.062;2024-03-08T13:23:40;8.90;99.90
14737;DHT22;7459;53.590;10.062;2024-03-08T13:26:11;9.00;99.90
14737;DHT22;7459;53.590;10.062;2024-03-08T13:28:44;9.00;99.90
14737;DHT22;7459;53.590;10.062;2024-03-08T13:31:11;9.00;99.90
14737;DHT22;7459;53.590;10.062;2024-03-08T13:33:37;9.10;99.90
14737;DHT22;7459;53.590;10.062;2024-03-08T13:36:07;9.10;99.90
14737;DHT22;7459;53.590;10.062;2024-03-08T13:38:44;9.20;99.90
14737;DHT22;7459;53.590;10.062;2024-03-08T13:41:11;9.20;99.90
14737;DHT22;7459;53.590;10.062;2024-03-08T13:43:37;9.30;99.90
14737;DHT22;7459;53.590;10.062;2024-03-08T13:46:05;9.30;99.90
14737;DHT22;7459;53.590;10.062;2024-03-08T13:48:32;9.40;99.90
14737;DHT22;7459;53.590;10.062;2024-03-08T13:50:58;9.50;99.90
14737;DHT22;7459;53.590;10.062;2024-03-08T13:53:25;9.60;99.90
14737;DHT22;7459;53.590;10.062;2024-03-08T13:55:52;9.60;99.90
14737;DHT22;7459;53.590;10.062;2024-03-08T13:58:17;9.60;99.90
14737;DHT22;7459;53.590;10.062;2024-03-08T14:00:46;9.70;99.90
14737;DHT22;7459;53.590;10.062;2024-03-08T14:03:13;9.70;99.90
14737;DHT22;7459;53.590;10.062;2024-03-08T14:05:39;9.70;99.90
14737;DHT22;7459;53.590;10.062;2024-03-08T14:08:07;9.80;99.90
14737;DHT22;7459;53.590;10.062;2024-03-08T14:10:33;9.80;99.90
14737;DHT22;7459;53.590;10.062;2024-03-08T14:13:00;9.90;99.90
14737;DHT22;7459;53.590;10.062;2024-03-08T14:15:28;10.00;99.90
14737;DHT22;7459;53.590;10.062;2024-03-08T14:17:55;10.00;99.90
14737;DHT22;7459;53.590;10.062;2024-03-08T14:20:21;10.00;99.90
14737;DHT22;7459;53.590;10.062;2024-03-08T14:22:54;10.00;99.90
14737;DHT22;7459;53.590;10.062;2024-03-08T14:25:20;10.10;99.90
14737;DHT22;7459;53.590;10.062;2024-03-08T14:27:52;10.00;99.90
14737;DHT22;7459;53.590;10.062;2024-03-08T14:30:20;10.00;99.90
14737;DHT22;7459;53.590;10.062;2024-03-08T14:32:59;10.10;99.90
14737;DHT22;7459;53.590;10.062;2024-03-08T14:35:28;10.10;99.90
14737;DHT22;7459;53.590;10.062;2024-03-08T14:37:57;10.20;99.90
14737;DHT22;7459;53.590;10.062;2024-03-08T14:40:24;10.20;99.90
14737;DHT22;7459;53.590;10.062;2024-03-08T14:42:51;10.20;99.90
14737;DHT22;7459;53.590;10.062;2024-03-08T14:45:17;10.30;99.90
14737;DHT22;7459;53.590;10.062;2024-03-08T14:47:48;10.30;99.90
14737;DHT22;7459;53.590;10.062;2024-03-08T14:50:18;10.30;99.90
14737;DHT22;7459;53.590;10.062;2024-03-08T14:52:44;10.30;99.90
14737;DHT22;7459;53.590;10.062;2024-03-08T14:55:14;10.20;99.90
14737;DHT22;7459;53.590;10.062;2024-03-08T14:57:41;10.20;99.90
14737;DHT22;7459;53.590;10.062;2024-03-08T15:00:08;10.20;99.90
14737;DHT22;7459;53.590;10.062;2024-03-08T15:02:43;10.30;99.90
14737;DHT22;7459;53.590;10.062;2024-03-08T15:05:08;10.30;99.90
14737;DHT22;7459;53.590;10.062;2024-03-08T15:07:40;10.30;99.90
14737;DHT22;7459;53.590;10.062;2024-03-08T15:10:07;10.30;99.90
14737;DHT22;7459;53.590;10.062;2024-03-08T15:12:36;10.30;99.90
14737;DHT22;7459;53.590;10.062;2024-03-08T15:15:05;10.30;99.90
14737;DHT22;7459;53.590;10.062;2024-03-08T15:17:35;10.30;99.90
14737;DHT22;7459;53.590;10.062;2024-03-08T15:20:02;10.30;99.90
14737;DHT22;7459;53.590;10.062;2024-03-08T15:22:28;10.20;99.90
14737;DHT22;7459;53.590;10.062;2024-03-08T15:24:54;10.20;99.90
14737;DHT22;7459;53.590;10.062;2024-03-08T15:27:20;10.10;99.90
14737;DHT22;7459;53.590;10.062;2024-03-08T15:29:46;10.10;99.90
14737;DHT22;7459;53.590;10.062;2024-03-08T15:32:14;10.10;99.90
14737;DHT22;7459;53.590;10.062;2024-03-08T15:34:46;10.00;99.90
14737;DHT22;7459;53.590;10.062;2024-03-08T15:37:11;10.00;99.90
14737;DHT22;7459;53.590;10.062;2024-03-08T15:39:45;9.90;99.90
14737;DHT22;7459;53.590;10.062;2024-03-08T15:42:11;9.80;99.90
14737;DHT22;7459;53.590;10.062;2024-03-08T15:44:37;9.70;99.90
14737;DHT22;7459;53.590;10.062;2024-03-08T15:47:04;9.70;99.90
14737;DHT22;7459;53.590;10.062;2024-03-08T15:49:36;9.60;99.90
14737;DHT22;7459;53.590;10.062;2024-03-08T15:52:01;9.50;99.90
14737;DHT22;7459;53.590;10.062;2024-03-08T15:54:27;9.50;99.90
14737;DHT22;7459;53.590;10.062;2024-03-08T15:56:53;9.40;99.90
14737;DHT22;7459;53.590;10.062;2024-03-08T15:59:18;9.40;99.90